Meteo Giornale » Osservazioni meteo Gran Bretagna » Shawbury

ore: 15:50 - Osservazioni Meteo Shawbury
Lat. 52° 48' N Lon. 2° 40' W Alt. 76 metri s.l.m.

molto_nuvoloso Europe/London

22 °C

Molto Nuvoloso

Temp. 24 Ore

10 °C

22 °C

Ovest/Sud-Ovest

16.7 Km/h

Dew point 16 °C

Umidità 68 %

Visibilità  10 Km

Il sole sorge alle ore 06:58

Il sole tramonta alle ore 19:06

Data e Ora Cielo e Fenomeni T °C DP °C Um. % Pres. hPa Vis. km Vento km/h
Oggi h: 15:50 molto_nuvoloso Molto Nuvoloso 22 16 68 1013 10 O/SO 16.7
Oggi h: 15:19 nuvoloso Nuvoloso 22 17 73 1013 10 O/SO 18.5
Oggi h: 14:50 molto_nuvoloso Molto Nuvoloso 21 16 73 1014 10 O/SO 20.3
Oggi h: 13:20 poco_nuvoloso Poco Nuvoloso 21 16 73 1014 10 O/SO 27.8
Oggi h: 12:50 poco_nuvoloso Poco Nuvoloso 21 15 68 1014 10 O/SO 27.8
Oggi h: 11:50 poco_nuvoloso Poco Nuvoloso 19 14 72 1014 10 O/SO 25.9
Oggi h: 11:20 molto_nuvoloso Molto Nuvoloso 19 14 72 1014 10 O/SO 29.6
Oggi h: 10:50 molto_nuvoloso Molto Nuvoloso 18 14 77 1014 10 O 27.8
Oggi h: 10:20 molto_nuvoloso Molto Nuvoloso 17 13 77 1014 10 O/SO 29.6
Oggi h: 09:50 molto_nuvoloso Molto Nuvoloso 17 14 82 1014 10 O 31.5
Oggi h: 09:20 molto_nuvoloso Molto Nuvoloso 15 12 82 1014 10 O/SO 24
Oggi h: 08:20 molto_nuvoloso Molto Nuvoloso 15 11 76 1014 10 O/SO 24
Oggi h: 07:50 coperto Coperto 14 11 82 1014 10 SO 14.8
Oggi h: 05:50 molto_nuvoloso Molto Nuvoloso 12 11 93 1015 10 S 9.3
Oggi h: 04:50 sereno Sereno 12 10 87 1015 10 S/SO 14.8
Oggi h: 03:50 sereno Sereno 12 11 93 1016 10 S 11.1
Oggi h: 02:50 sereno Sereno 11 11 100 1016 10 S/SO 13
Oggi h: 01:50 sereno Sereno 10 10 100 1017 10 SO 9.3
Oggi h: 00:50 poco_nuvoloso Poco Nuvoloso 10 9 93 1018 10 O/SO 9.3
Ieri h: 23:50 molto_nuvoloso Molto Nuvoloso 11 11 100 1018 10 N 1.8
Ieri h: 22:50 sereno Sereno 11 10 93 1018 10 SO 7.4
Ieri h: 22:20 sereno Sereno 11 10 93 1018 10 N 3.7
Ieri h: 21:20 sereno Sereno 12 10 87 1018 10 N 1.8
Ieri h: 20:50 sereno Sereno 13 11 87 1018 10 N 3.7
Ieri h: 20:19 sereno Sereno 14 12 87 1018 10 N 3.7
Ieri h: 19:50 sereno Sereno 14 11 82 1018 10 N/NO 7.4
Ieri h: 19:20 molto_nuvoloso Molto Nuvoloso 16 12 77 1018 10 N 5.5
Ieri h: 18:50 molto_nuvoloso Molto Nuvoloso 16 12 77 1018 10 N/NO 11.1
Ieri h: 17:50 molto_nuvoloso Molto Nuvoloso 20 10 52 1018 10 O/SO 16.7
Ieri h: 16:50 nuvoloso Nuvoloso 19 11 59 1018 10 O 9.3